Accueil
METAR-TAF:

METAR-TAF

Aéroports :

Aéroport de Bari

Bari, Italie

latitude: 41-08N, longitude: 016-47E, altitude: 34 m

Observation

Le bulletin a été fait il y a 34 minutes, à 13:50 UTC
Vent 5 kt de nord-ouest, variant entre ouest et nord
Température 12°C
Humidité 82%
Pression 1018 hPa
Visibilité: 9000 m
Quelques nuages à une hauteur de 2500 ft

METAR: LIBD 261350Z 32005KT 270V360 9000 FEW025 12/09 Q1018

Heure: 15:24 (14:24 UTC)

Prévision

Le bulletin a été fait il y a 3 heures et 24 minutes, à 11:00 UTC
Prévision valable du 26 à 12 UTC au 27 à 12 UTC
Vent 8 kt de sud
Visibilité 10 km ou plus
Nuages épars à une hauteur de 4000 ft
Temporairement
du 26 à 12 UTC au 26 à 18 UTC
pluie
Temporairement
du 27 à 02 UTC au 27 à 07 UTC
Visibilité: 4000 m
brume

TAF: LIBD 261100Z 2612/2712 19008KT 9999 SCT040 TEMPO 2612/2618 RA TEMPO 2702/2707 4000 BR

Observations et prévisions météorologiques de plus de 4000 aéroports (messages METAR et TAF).

Les stations disponibles sont représentées par des disques jaunes et rouges sur la carte.

Passer la souris dessus pour voir le nom de la station.

Cliquer dessus pour voir les observations et prévisions météorologiques.

Pour changer de carte: cliquez sur les boutons verts avec une croix noire pour zoomer, sur le bouton vert avec un tiret pour effectuer un zoom arrière, ou sur les flèches vertes pour les cartes adjacentes.


METAR-TAF: